Libertyville, Iowa
Current Conditions -  °F | °C
As of 2:55 AM on Thursday 23 Oct 2014 (Local Time) from KFFL Reporting Station
Clear Clear  
Wind Chill: 42°   Ceiling: Unl
Heat Index: 46°   Visibility: NA
Dew Point: 41°   Wind: 9mph
Humidity: 81%   Direction: 180°S
Pressure: 30.14"   Gusts: NA
Location:  40.96°N, 92.05°W
Report Text: KFFL 230755Z AUTO 18008KT CLR 08/05 A3014 RMK AO2
Loading
Personal Weather Stations






























Interactive Weather Map
Tropical Storm Tracking
New forecast layout! Learn more

10-Day Weather Forecast

Advertisements
Track Severe Weather on mobile